createdAt,value
2023-04-23T00:00:21.606Z,229.13
2023-04-23T00:03:31.482Z,258.03
2023-04-23T00:06:39.404Z,486.76
2023-04-23T00:09:49.538Z,306.17
2023-04-23T00:12:59.195Z,272.88
2023-04-23T00:16:05.928Z,255.64
2023-04-23T00:19:12.454Z,239.27
2023-04-23T00:22:20.463Z,236.75
2023-04-23T00:25:29.522Z,236.84
2023-04-23T00:28:35.353Z,243.51
2023-04-23T00:31:41.930Z,257.38
2023-04-23T00:34:48.948Z,259.86
2023-04-23T00:37:55.872Z,247.08
2023-04-23T00:41:04.247Z,244.19
2023-04-23T00:44:11.071Z,245.11
2023-04-23T00:47:20.812Z,243.79
2023-04-23T00:50:27.707Z,242.93
2023-04-23T00:53:33.612Z,240.19
2023-04-23T00:56:43.108Z,240.72
2023-04-23T00:59:49.870Z,236.46
2023-04-23T01:02:58.632Z,238.37
2023-04-23T01:06:04.660Z,239.36
2023-04-23T01:09:13.084Z,242.01
2023-04-23T01:12:21.809Z,240.29
2023-04-23T01:15:28.255Z,247.19
2023-04-23T01:18:34.403Z,238.96
2023-04-23T01:21:43.813Z,245.45
2023-04-23T01:24:53.000Z,244.63
2023-04-23T01:28:00.701Z,242.61
2023-04-23T01:31:07.414Z,244.21
2023-04-23T01:34:14.623Z,247.29
2023-04-23T01:37:21.587Z,238.52
2023-04-23T01:40:30.757Z,237.68
2023-04-23T01:43:37.531Z,239.32
2023-04-23T01:46:44.038Z,244.72
2023-04-23T01:49:49.919Z,241.77
2023-04-23T01:52:56.659Z,250.13
2023-04-23T01:56:06.829Z,245.18
2023-04-23T01:59:13.379Z,241.36
2023-04-23T02:02:19.979Z,249.88
2023-04-23T02:05:31.554Z,249.86
2023-04-23T02:08:37.176Z,254.90
2023-04-23T02:11:46.697Z,248.76
2023-04-23T02:14:52.451Z,255.80
2023-04-23T02:17:59.086Z,260.45
2023-04-23T02:21:04.890Z,259.67
2023-04-23T02:24:11.587Z,261.24
2023-04-23T02:27:20.086Z,262.10
2023-04-23T02:30:26.709Z,268.92
2023-04-23T02:33:32.383Z,274.11
2023-04-23T02:36:39.449Z,277.42
2023-04-23T02:39:45.087Z,287.34
2023-04-23T02:42:54.137Z,294.62
2023-04-23T02:46:00.007Z,305.53
2023-04-23T02:49:07.489Z,314.56
2023-04-23T02:52:13.695Z,324.86
2023-04-23T02:55:20.452Z,328.31
2023-04-23T02:58:28.680Z,333.68
2023-04-23T03:01:37.500Z,343.05
2023-04-23T03:04:45.425Z,345.84
2023-04-23T03:07:52.028Z,351.37
2023-04-23T03:10:57.880Z,363.18
2023-04-23T03:14:07.108Z,366.37
2023-04-23T03:17:13.639Z,371.88
2023-04-23T03:20:20.355Z,366.59
2023-04-23T03:23:25.901Z,376.60
2023-04-23T03:26:32.346Z,379.50
2023-04-23T03:29:40.570Z,391.42
2023-04-23T03:32:47.097Z,396.91
2023-04-23T03:35:52.741Z,397.09
2023-04-23T03:39:06.011Z,400.32
2023-04-23T03:42:23.975Z,409.67
2023-04-23T03:45:36.100Z,422.66
2023-04-23T03:48:42.262Z,421.92
2023-04-23T03:51:58.744Z,414.30
2023-04-23T03:55:12.454Z,405.69
2023-04-23T03:58:25.181Z,404.50
2023-04-23T04:01:36.371Z,404.42
2023-04-23T04:04:43.401Z,409.36
2023-04-23T04:07:50.917Z,400.77
2023-04-23T04:11:01.690Z,396.09
2023-04-23T04:14:10.057Z,388.44
2023-04-23T04:17:20.444Z,381.98
2023-04-23T04:20:29.261Z,375.92
2023-04-23T04:23:36.698Z,373.31
2023-04-23T04:26:43.844Z,364.44
2023-04-23T04:29:50.526Z,354.24
2023-04-23T04:32:58.986Z,353.49
2023-04-23T04:36:06.136Z,346.87
2023-04-23T04:39:13.766Z,347.88
2023-04-23T04:42:20.548Z,342.28
2023-04-23T04:45:26.383Z,332.76
2023-04-23T04:48:35.285Z,329.05
2023-04-23T04:51:43.056Z,323.59
2023-04-23T04:54:49.454Z,310.50
2023-04-23T04:57:55.351Z,301.30
2023-04-23T05:01:02.612Z,296.55
2023-04-23T05:04:11.104Z,290.69
2023-04-23T05:07:18.043Z,287.81
2023-04-23T05:10:24.782Z,284.10
2023-04-23T05:13:31.151Z,281.07
2023-04-23T05:16:37.468Z,283.66
2023-04-23T05:19:46.551Z,287.99
2023-04-23T05:22:52.433Z,283.02
2023-04-23T05:25:59.182Z,283.23
2023-04-23T05:29:04.814Z,282.98
2023-04-23T05:32:11.361Z,284.46
2023-04-23T05:35:19.878Z,278.55
2023-04-23T05:38:26.424Z,268.57
2023-04-23T05:41:32.137Z,266.03
2023-04-23T05:44:38.797Z,265.78
2023-04-23T05:47:44.787Z,254.00
2023-04-23T05:50:56.894Z,250.75
2023-04-23T05:54:03.008Z,243.81
2023-04-23T05:57:09.511Z,231.66
2023-04-23T06:00:17.265Z,227.61
2023-04-23T06:03:24.301Z,216.16
2023-04-23T06:06:32.716Z,217.27
2023-04-23T06:09:39.157Z,219.39
2023-04-23T06:12:44.943Z,217.21
2023-04-23T06:15:51.403Z,214.40
2023-04-23T06:18:57.078Z,211.60
2023-04-23T06:22:06.471Z,213.60
2023-04-23T06:25:13.089Z,207.83
2023-04-23T06:28:19.408Z,202.59
2023-04-23T06:31:51.301Z,202.30
2023-04-23T06:35:01.374Z,207.08
2023-04-23T06:38:10.045Z,198.77
2023-04-23T06:41:17.081Z,197.82
2023-04-23T06:44:22.709Z,197.07
2023-04-23T06:47:36.976Z,196.13
2023-04-23T06:50:43.175Z,184.77
2023-04-23T06:53:52.466Z,182.09
2023-04-23T06:56:58.346Z,179.85
2023-04-23T07:00:05.706Z,176.74
2023-04-23T07:03:16.056Z,168.89
2023-04-23T07:06:22.742Z,158.96
2023-04-23T07:09:32.165Z,153.48
2023-04-23T07:12:39.380Z,149.52
2023-04-23T07:15:46.994Z,131.29
2023-04-23T07:18:53.697Z,127.83
2023-04-23T07:21:59.291Z,134.29
2023-04-23T07:25:09.094Z,131.47
2023-04-23T07:28:14.861Z,126.59
2023-04-23T07:31:22.309Z,122.52
2023-04-23T07:34:28.143Z,118.84
2023-04-23T07:37:34.478Z,115.45
2023-04-23T07:40:42.666Z,110.79
2023-04-23T07:43:49.472Z,112.76
2023-04-23T07:46:55.705Z,108.80
2023-04-23T07:50:02.214Z,104.83
2023-04-23T07:53:08.186Z,107.63
2023-04-23T07:56:17.257Z,97.25
2023-04-23T07:59:23.109Z,91.57
2023-04-23T08:02:29.789Z,87.98
2023-04-23T08:05:37.586Z,88.40
2023-04-23T08:08:44.372Z,90.29
2023-04-23T08:11:53.062Z,85.96
2023-04-23T08:15:00.095Z,79.66
2023-04-23T08:18:14.671Z,84.62
2023-04-23T08:21:21.153Z,76.91
2023-04-23T08:24:27.122Z,77.81
2023-04-23T08:27:36.368Z,59.17
2023-04-23T08:30:42.305Z,95.17
2023-04-23T08:33:50.260Z,76.36
2023-04-23T08:36:55.820Z,70.57
2023-04-23T08:40:02.217Z,65.99
2023-04-23T08:43:19.563Z,55.00
2023-04-23T08:46:28.392Z,54.66
2023-04-23T08:49:37.674Z,57.48
2023-04-23T08:52:50.096Z,56.93
2023-04-23T08:55:57.409Z,56.07
2023-04-23T08:59:06.946Z,65.28
2023-04-23T09:02:13.114Z,50.14
2023-04-23T09:05:22.688Z,49.04
2023-04-23T09:08:28.369Z,48.51
2023-04-23T09:11:35.579Z,47.67
2023-04-23T09:14:43.970Z,52.81
2023-04-23T09:17:51.492Z,46.47
2023-04-23T09:20:57.355Z,41.99
2023-04-23T09:24:08.308Z,44.92
2023-04-23T09:27:13.942Z,44.23
2023-04-23T09:30:25.641Z,45.61
2023-04-23T09:33:33.220Z,45.47
2023-04-23T09:36:40.808Z,48.24
2023-04-23T09:39:46.841Z,44.61
2023-04-23T09:42:56.075Z,41.63
2023-04-23T09:46:04.530Z,40.65
2023-04-23T09:49:13.340Z,37.08
2023-04-23T09:52:19.881Z,40.86
2023-04-23T09:55:35.970Z,43.04
2023-04-23T09:58:41.990Z,46.23
2023-04-23T10:01:51.365Z,39.97
2023-04-23T10:05:06.912Z,44.33
2023-04-23T10:08:27.747Z,41.49
2023-04-23T10:11:33.822Z,38.83
2023-04-23T10:14:45.483Z,44.74
2023-04-23T10:17:55.825Z,44.78
2023-04-23T10:21:06.293Z,43.07
2023-04-23T10:24:14.437Z,42.28
2023-04-23T10:27:36.850Z,41.38
2023-04-23T10:30:52.703Z,41.33
2023-04-23T10:34:06.351Z,41.39
2023-04-23T10:37:13.400Z,41.79
2023-04-23T10:40:37.090Z,51.67
2023-04-23T10:43:43.633Z,47.19
2023-04-23T10:47:02.368Z,45.55
2023-04-23T10:50:29.170Z,50.33
2023-04-23T10:53:36.024Z,56.87
2023-04-23T10:56:42.301Z,97.68
2023-04-23T10:59:59.145Z,46.26
2023-04-23T11:03:05.767Z,45.12
2023-04-23T11:06:22.392Z,44.35
2023-04-23T11:09:50.174Z,52.02
2023-04-23T11:12:59.427Z,59.04
2023-04-23T11:16:19.840Z,109.19
2023-04-23T11:19:26.388Z,46.30
2023-04-23T11:22:39.229Z,47.98
2023-04-23T11:25:48.207Z,42.46
2023-04-23T11:28:59.732Z,42.66
2023-04-23T11:32:10.743Z,52.24
2023-04-23T11:35:19.160Z,48.34
2023-04-23T11:38:35.058Z,57.79
2023-04-23T11:41:40.672Z,47.78
2023-04-23T11:44:50.543Z,53.34
2023-04-23T11:47:59.595Z,44.64
2023-04-23T11:51:08.973Z,45.55
2023-04-23T11:54:20.153Z,52.58
2023-04-23T11:57:26.647Z,47.14
2023-04-23T12:00:32.353Z,46.82
2023-04-23T12:03:38.920Z,43.61
2023-04-23T12:06:47.976Z,43.42
2023-04-23T12:10:03.253Z,43.44
2023-04-23T12:13:08.993Z,42.10
2023-04-23T12:16:15.553Z,43.39
2023-04-23T12:19:24.452Z,43.95
2023-04-23T12:22:31.532Z,40.91
2023-04-23T12:25:43.895Z,70.23
2023-04-23T12:28:50.758Z,43.03
2023-04-23T12:32:01.528Z,46.55
2023-04-23T12:35:12.443Z,52.62
2023-04-23T12:38:29.212Z,44.14
2023-04-23T12:41:41.418Z,48.47
2023-04-23T12:44:51.809Z,71.87
2023-04-23T12:47:58.353Z,63.97
2023-04-23T12:51:06.864Z,55.31
2023-04-23T12:54:15.333Z,50.84
2023-04-23T12:57:24.698Z,51.02
2023-04-23T13:00:31.252Z,49.00
2023-04-23T13:03:37.040Z,45.55
2023-04-23T13:06:44.276Z,40.39
2023-04-23T13:09:49.834Z,41.30
2023-04-23T13:12:58.894Z,42.72
2023-04-23T13:16:04.607Z,59.29
2023-04-23T13:19:11.010Z,38.85
2023-04-23T13:22:16.711Z,39.32
2023-04-23T13:25:23.183Z,47.68
2023-04-23T13:28:31.389Z,44.44
2023-04-23T13:31:38.034Z,40.43
2023-04-23T13:34:43.564Z,42.10
2023-04-23T13:37:49.982Z,43.55
2023-04-23T13:40:55.817Z,41.29
2023-04-23T13:44:04.815Z,42.61
2023-04-23T13:47:10.368Z,43.59
2023-04-23T13:50:16.770Z,40.82
2023-04-23T13:53:22.470Z,39.97
2023-04-23T13:56:30.796Z,41.13
2023-04-23T13:59:39.628Z,42.70
2023-04-23T14:02:46.306Z,44.63
2023-04-23T14:05:52.354Z,45.32
2023-04-23T14:08:58.752Z,47.81
2023-04-23T14:12:04.394Z,43.24
2023-04-23T14:15:15.045Z,41.53
2023-04-23T14:18:20.523Z,40.89
2023-04-23T14:21:27.051Z,39.08
2023-04-23T14:24:41.835Z,52.13
2023-04-23T14:27:54.260Z,47.50
2023-04-23T14:31:05.301Z,41.07
2023-04-23T14:34:11.946Z,57.41
2023-04-23T14:37:17.961Z,47.22
2023-04-23T14:40:24.455Z,42.18
2023-04-23T14:43:31.237Z,52.83
2023-04-23T14:46:41.936Z,54.49
2023-04-23T14:49:47.495Z,47.49
2023-04-23T14:52:54.400Z,46.81
2023-04-23T14:55:59.971Z,40.60
2023-04-23T14:59:06.562Z,44.02
2023-04-23T15:02:15.039Z,41.67
2023-04-23T15:05:21.594Z,45.04
2023-04-23T15:08:27.450Z,50.18
2023-04-23T15:11:34.439Z,57.82
2023-04-23T15:14:41.381Z,49.59
2023-04-23T15:17:50.840Z,52.99
2023-04-23T15:20:58.933Z,49.64
2023-04-23T15:24:05.651Z,53.05
2023-04-23T15:27:15.160Z,49.59
2023-04-23T15:30:23.154Z,49.33
2023-04-23T15:33:32.912Z,49.47
2023-04-23T15:36:39.539Z,49.60
2023-04-23T15:39:45.172Z,47.37
2023-04-23T15:42:52.394Z,46.41
2023-04-23T15:45:59.162Z,48.37
2023-04-23T15:49:08.409Z,55.09
2023-04-23T15:52:14.869Z,87.62
2023-04-23T15:55:22.055Z,53.14
2023-04-23T15:58:27.629Z,47.18
2023-04-23T16:01:34.318Z,48.57
2023-04-23T16:04:43.079Z,45.88
2023-04-23T16:07:49.774Z,47.50
2023-04-23T16:10:57.230Z,46.88
2023-04-23T16:14:03.933Z,47.02
2023-04-23T16:17:09.705Z,48.42
2023-04-23T16:20:18.822Z,58.21
2023-04-23T16:23:24.408Z,54.06
2023-04-23T16:26:31.988Z,55.84
2023-04-23T16:29:37.583Z,63.40
2023-04-23T16:32:44.047Z,52.04
2023-04-23T16:35:52.879Z,52.96
2023-04-23T16:38:59.914Z,51.77
2023-04-23T16:42:05.776Z,51.11
2023-04-23T16:45:13.338Z,54.79
2023-04-23T16:48:20.080Z,54.30
2023-04-23T16:51:29.965Z,52.28
2023-04-23T16:54:36.349Z,61.85
2023-04-23T16:57:42.775Z,57.70
2023-04-23T17:00:49.127Z,48.07
2023-04-23T17:03:55.739Z,64.77
2023-04-23T17:07:04.353Z,103.85
2023-04-23T17:10:12.819Z,57.10
2023-04-23T17:13:18.349Z,48.85
2023-04-23T17:16:27.071Z,52.66
2023-04-23T17:19:33.233Z,54.70
2023-04-23T17:22:42.678Z,51.41
2023-04-23T17:25:48.615Z,52.29
2023-04-23T17:28:55.124Z,54.76
2023-04-23T17:32:03.055Z,59.26
2023-04-23T17:35:11.544Z,58.34
2023-04-23T17:38:20.792Z,60.12
2023-04-23T17:41:27.253Z,64.75
2023-04-23T17:44:32.834Z,66.42
2023-04-23T17:47:41.067Z,61.47
2023-04-23T17:50:47.550Z,63.09
2023-04-23T17:53:56.644Z,61.11
2023-04-23T17:57:02.260Z,62.87
2023-04-23T18:00:13.911Z,59.73
2023-04-23T18:03:21.994Z,62.05
2023-04-23T18:06:29.187Z,60.04
2023-04-23T18:09:37.887Z,71.28
2023-04-23T18:12:45.104Z,111.96
2023-04-23T18:15:51.060Z,94.95
2023-04-23T18:18:57.588Z,89.37
2023-04-23T18:22:03.949Z,144.56
2023-04-23T18:25:13.846Z,653.79
2023-04-23T18:28:19.625Z,768.11
2023-04-23T18:31:26.303Z,396.34
2023-04-23T18:34:40.117Z,179.82
2023-04-23T18:37:56.233Z,103.31
2023-04-23T18:41:04.947Z,94.76
2023-04-23T18:44:13.312Z,77.35
2023-04-23T18:47:23.100Z,65.85
2023-04-23T18:50:40.323Z,63.00
2023-04-23T18:53:46.338Z,63.49
2023-04-23T18:56:56.214Z,66.48
2023-04-23T19:00:01.832Z,70.76
2023-04-23T19:03:23.415Z,69.48
2023-04-23T19:06:31.607Z,67.58
2023-04-23T19:09:38.224Z,89.18
2023-04-23T19:12:46.836Z,102.79
2023-04-23T19:15:53.485Z,93.48
2023-04-23T19:18:59.843Z,107.45
2023-04-23T19:22:06.438Z,113.79
2023-04-23T19:25:13.299Z,136.88
2023-04-23T19:28:22.314Z,133.00
2023-04-23T19:31:27.990Z,133.53
2023-04-23T19:34:34.593Z,119.96
2023-04-23T19:37:40.128Z,119.28
2023-04-23T19:40:46.640Z,113.34
2023-04-23T19:43:55.356Z,106.47
2023-04-23T19:47:02.247Z,102.21
2023-04-23T19:50:09.978Z,96.56
2023-04-23T19:53:16.822Z,99.64
2023-04-23T19:56:23.545Z,99.32
2023-04-23T19:59:32.596Z,95.57
2023-04-23T20:02:39.133Z,100.81
2023-04-23T20:05:46.504Z,100.35
2023-04-23T20:09:04.858Z,102.65
2023-04-23T20:12:11.517Z,102.80
2023-04-23T20:15:24.546Z,106.04
2023-04-23T20:18:34.527Z,111.65
2023-04-23T20:21:42.889Z,116.55
2023-04-23T20:24:49.423Z,122.45
2023-04-23T20:27:55.335Z,159.14
2023-04-23T20:31:04.444Z,173.08
2023-04-23T20:34:11.215Z,177.55
2023-04-23T20:37:21.716Z,229.04
2023-04-23T20:40:27.969Z,406.77
2023-04-23T20:43:38.958Z,263.19
2023-04-23T20:46:47.590Z,185.79
2023-04-23T20:49:54.013Z,147.89
2023-04-23T20:52:59.521Z,133.28
2023-04-23T20:56:05.899Z,144.70
2023-04-23T20:59:11.791Z,146.59
2023-04-23T21:02:21.196Z,144.70
2023-04-23T21:05:26.710Z,155.58
2023-04-23T21:08:33.254Z,174.15
2023-04-23T21:11:39.392Z,174.92
2023-04-23T21:14:47.637Z,202.83
2023-04-23T21:17:55.831Z,216.44
2023-04-23T21:21:02.730Z,231.91
2023-04-23T21:24:08.743Z,241.37
2023-04-23T21:27:21.968Z,247.16
2023-04-23T21:30:42.353Z,244.74
2023-04-23T21:33:51.664Z,236.76
2023-04-23T21:36:57.341Z,254.87
2023-04-23T21:40:03.782Z,262.54
2023-04-23T21:43:10.332Z,254.76
2023-04-23T21:46:16.905Z,247.88
2023-04-23T21:49:25.240Z,289.76
2023-04-23T21:52:31.784Z,289.14
2023-04-23T21:55:37.544Z,270.17
2023-04-23T21:58:44.204Z,245.67
2023-04-23T22:01:49.763Z,214.25
2023-04-23T22:04:58.967Z,211.44
2023-04-23T22:08:07.055Z,194.81
2023-04-23T22:11:14.164Z,184.57
2023-04-23T22:14:19.727Z,185.00
2023-04-23T22:17:26.628Z,189.78
2023-04-23T22:20:35.122Z,192.64
2023-04-23T22:23:41.754Z,184.86
2023-04-23T22:26:47.464Z,215.52
2023-04-23T22:29:55.296Z,234.06
2023-04-23T22:33:00.876Z,231.76
2023-04-23T22:36:10.467Z,242.74
2023-04-23T22:39:16.132Z,240.14
2023-04-23T22:42:22.585Z,238.12
2023-04-23T22:45:28.596Z,240.58
2023-04-23T22:48:34.976Z,233.67
2023-04-23T22:51:44.053Z,231.07
2023-04-23T22:54:50.662Z,221.04
2023-04-23T22:57:56.305Z,215.62
2023-04-23T23:01:02.724Z,220.87
2023-04-23T23:04:08.647Z,201.38
2023-04-23T23:07:18.001Z,216.04
2023-04-23T23:10:23.771Z,217.28
2023-04-23T23:13:30.284Z,221.03
2023-04-23T23:16:37.717Z,215.16
2023-04-23T23:19:44.437Z,218.26
2023-04-23T23:22:53.167Z,228.18
2023-04-23T23:26:00.210Z,219.93
2023-04-23T23:29:05.934Z,222.80
2023-04-23T23:32:12.706Z,220.82
2023-04-23T23:35:18.452Z,217.63
2023-04-23T23:38:27.835Z,211.78
2023-04-23T23:41:33.490Z,212.20
2023-04-23T23:44:39.996Z,209.66
2023-04-23T23:47:45.752Z,207.53
2023-04-23T23:50:52.343Z,208.74
2023-04-23T23:54:00.514Z,201.37
2023-04-23T23:57:07.174Z,208.02
